This is the latest recevied weather packets stored in our database for station/object YN8O-13. If no packets are shown the sender has not sent any weather packets the latest 10 day(s).
| Time | Temp. | Humidity | Pressure | Rain* | Wind** | Luminosity | Snow |
|---|---|---|---|---|---|---|---|
| 1777925543 | 32.78° C | 24% | 1009 hPa | 0 mm | - | - | - |
| 1777924943 | 32.78° C | 24% | 1009 hPa | 0 mm | - | - | - |
| 1777924342 | 32.78° C | 23% | 1009 hPa | 0 mm | - | - | - |
| 1777923742 | 32.78° C | 23% | 1009 hPa | 0 mm | - | - | - |
| 1777923141 | 32.22° C | 25% | 1010 hPa | 0 mm | - | - | - |
| 1777922541 | 32.22° C | 25% | 1010 hPa | 0 mm | - | - | - |
| 1777921940 | 32.22° C | 26% | 1010 hPa | 0 mm | - | - | - |
| 1777921340 | 32.22° C | 26% | 1010 hPa | 0 mm | - | - | - |
| 1777920740 | 32.22° C | 25% | 1010 hPa | 0 mm | - | - | - |
| 1777920139 | 31.67° C | 25% | 1010 hPa | 0 mm | - | - | - |
| 1777919539 | 31.11° C | 30% | 1012 hPa | 0 mm | - | - | - |
| 1777918939 | 31.11° C | 30% | 1012 hPa | 0 mm | - | - | - |
| 1777918338 | 31.11° C | 30% | 1012 hPa | 0 mm | - | - | - |
| 1777917737 | 31.11° C | 28% | 1012 hPa | 0 mm | - | - | - |
| 1777917137 | 31.11° C | 28% | 1012 hPa | 0 mm | - | - | - |
| 1777916537 | 30.56° C | 30% | 1012 hPa | 0 mm | - | - | - |
| 1777915937 | 29.44° C | 35% | 1013 hPa | 0 mm | - | - | - |
| 1777915336 | 29.44° C | 35% | 1013 hPa | 0 mm | - | - | - |
| 1777914736 | 29.44° C | 34% | 1013 hPa | 0 mm | - | - | - |
| 1777914136 | 29.44° C | 34% | 1013 hPa | 0 mm | - | - | - |
| 1777913535 | 29.44° C | 34% | 1013 hPa | 0 mm | - | - | - |
| 1777912935 | 29.44° C | 37% | 1013 hPa | 0 mm | - | - | - |
| 1777912334 | 29.44° C | 37% | 1013 hPa | 0 mm | - | - | - |
| 1777911734 | 28.33° C | 44% | 1014 hPa | 0 mm | - | - | - |
| 1777911134 | 27.78° C | 44% | 1014 hPa | 0 mm | - | - | - |
* Rain latest hour (hover to see other rain measurements)
** Current wind speed in m/s (hover to see current wind gust speed)